createdAt,value
2023-02-06T00:03:25.836Z,19.20
2023-02-06T00:08:28.724Z,19.20
2023-02-06T00:13:36.736Z,21.00
2023-02-06T00:18:38.692Z,23.10
2023-02-06T00:23:41.865Z,29.20
2023-02-06T00:28:44.767Z,27.00
2023-02-06T00:33:47.349Z,18.30
2023-02-06T00:38:52.522Z,20.20
2023-02-06T00:43:55.182Z,19.20
2023-02-06T00:48:58.948Z,19.60
2023-02-06T00:54:01.247Z,20.10
2023-02-06T00:59:04.026Z,21.70
2023-02-06T01:04:07.176Z,21.20
2023-02-06T01:09:13.341Z,19.10
2023-02-06T01:14:15.948Z,19.50
2023-02-06T01:19:21.483Z,22.30
2023-02-06T01:24:26.502Z,22.50
2023-02-06T01:29:28.810Z,22.80
2023-02-06T01:34:46.219Z,25.70
2023-02-06T01:45:20.242Z,24.00
2023-02-06T01:50:22.929Z,21.30
2023-02-06T01:55:24.978Z,25.50
2023-02-06T02:00:27.290Z,23.60
2023-02-06T02:05:29.994Z,24.90
2023-02-06T02:10:33.363Z,25.10
2023-02-06T02:15:49.289Z,27.20
2023-02-06T02:21:35.287Z,23.80
2023-02-06T02:26:56.776Z,26.70
2023-02-06T02:32:35.858Z,26.60
2023-02-06T02:38:03.722Z,24.60
2023-02-06T02:43:20.369Z,23.90
2023-02-06T02:48:40.917Z,25.40
2023-02-06T02:53:43.227Z,23.00
2023-02-06T02:58:50.483Z,24.80
2023-02-06T03:03:57.589Z,24.40
2023-02-06T03:09:26.232Z,24.70
2023-02-06T03:14:39.313Z,22.90
2023-02-06T03:19:52.338Z,23.20
2023-02-06T03:24:59.077Z,23.60
2023-02-06T03:30:03.830Z,26.70
2023-02-06T03:35:17.802Z,25.90
2023-02-06T03:40:20.975Z,25.00
2023-02-06T03:45:27.185Z,23.40
2023-02-06T03:50:31.940Z,27.50
2023-02-06T03:55:37.133Z,28.80
2023-02-06T04:00:41.701Z,29.20
2023-02-06T04:05:43.622Z,26.20
2023-02-06T04:10:45.674Z,30.40
2023-02-06T04:15:48.018Z,29.40
2023-02-06T04:20:53.084Z,30.60
2023-02-06T04:25:55.023Z,30.20
2023-02-06T04:30:57.254Z,27.90
2023-02-06T04:35:59.340Z,29.30
2023-02-06T04:41:03.485Z,34.20
2023-02-06T04:46:05.855Z,27.10
2023-02-06T04:51:08.442Z,26.80
2023-02-06T04:56:12.193Z,27.20
2023-02-06T05:01:16.788Z,27.00
2023-02-06T05:06:22.573Z,29.50
2023-02-06T05:11:26.807Z,43.80
2023-02-06T05:16:29.063Z,25.10
2023-02-06T05:21:31.170Z,21.90
2023-02-06T05:26:33.610Z,20.50
2023-02-06T05:31:36.304Z,20.80
2023-02-06T05:36:38.903Z,21.10
2023-02-06T05:41:40.962Z,24.70
2023-02-06T05:46:44.207Z,27.10
2023-02-06T05:51:47.039Z,26.50
2023-02-06T05:56:49.032Z,26.90
2023-02-06T06:01:51.059Z,24.30
2023-02-06T06:06:56.657Z,28.40
2023-02-06T06:11:58.918Z,28.90
2023-02-06T06:17:01.816Z,29.80
2023-02-06T06:22:06.097Z,32.30
2023-02-06T06:27:10.676Z,32.40
2023-02-06T06:32:13.539Z,37.40
2023-02-06T06:37:15.723Z,37.60
2023-02-06T06:42:18.299Z,39.80
2023-02-06T06:47:20.474Z,34.90
2023-02-06T06:52:25.556Z,36.30
2023-02-06T06:57:32.690Z,37.70
2023-02-06T07:02:37.686Z,38.30
2023-02-06T07:07:39.847Z,40.10
2023-02-06T07:12:42.041Z,44.70
2023-02-06T07:17:44.022Z,43.00
2023-02-06T07:22:47.904Z,38.70
2023-02-06T07:27:49.941Z,42.50
2023-02-06T07:32:52.079Z,38.10
2023-02-06T07:37:54.228Z,42.10
2023-02-06T07:42:56.890Z,42.80
2023-02-06T07:48:04.350Z,40.70
2023-02-06T07:53:07.794Z,47.40
2023-02-06T07:58:13.149Z,45.00
2023-02-06T08:03:18.077Z,40.90
2023-02-06T08:08:25.197Z,48.60
2023-02-06T08:13:28.390Z,53.30
2023-02-06T08:18:30.356Z,55.50
2023-02-06T08:23:32.980Z,60.30
2023-02-06T08:28:35.930Z,58.30
2023-02-06T08:33:38.382Z,54.60
2023-02-06T08:38:42.348Z,50.80
2023-02-06T08:43:48.870Z,44.90
2023-02-06T08:49:17.363Z,45.80
2023-02-06T08:54:22.079Z,42.40
2023-02-06T08:59:24.574Z,34.50
2023-02-06T09:04:31.793Z,33.70
2023-02-06T09:09:37.201Z,32.60
2023-02-06T09:14:39.712Z,26.40
2023-02-06T09:19:42.190Z,19.40
2023-02-06T09:24:47.194Z,17.20
2023-02-06T09:29:52.654Z,15.40
2023-02-06T09:35:01.237Z,12.50
2023-02-06T09:40:06.364Z,11.00
2023-02-06T09:45:26.294Z,12.70
2023-02-06T09:51:06.174Z,17.30
2023-02-06T09:56:24.491Z,21.30
2023-02-06T10:01:38.760Z,18.40
2023-02-06T10:06:54.001Z,17.00
2023-02-06T10:12:18.203Z,15.40
2023-02-06T10:17:26.063Z,10.40
2023-02-06T10:22:54.872Z,10.80
2023-02-06T10:28:06.693Z,12.60
2023-02-06T10:33:26.187Z,12.00
2023-02-06T10:38:55.902Z,13.40
2023-02-06T10:44:16.984Z,16.00
2023-02-06T10:49:40.862Z,15.20
2023-02-06T10:54:52.121Z,15.70
2023-02-06T10:59:59.525Z,15.30
2023-02-06T11:05:09.846Z,14.00
2023-02-06T11:10:18.301Z,14.60
2023-02-06T11:15:46.949Z,13.50
2023-02-06T11:20:51.319Z,11.90
2023-02-06T11:26:19.725Z,11.80
2023-02-06T11:31:45.688Z,11.80
2023-02-06T11:36:52.949Z,11.90
2023-02-06T11:42:03.585Z,12.00
2023-02-06T11:47:28.575Z,11.20
2023-02-06T11:52:34.480Z,12.80
2023-02-06T11:57:36.318Z,10.70
2023-02-06T12:02:51.168Z,13.70
2023-02-06T12:08:05.376Z,14.60
2023-02-06T12:13:28.728Z,12.30
2023-02-06T12:18:39.728Z,14.20
2023-02-06T12:23:56.308Z,13.00
2023-02-06T12:29:16.946Z,13.70
2023-02-06T12:34:24.568Z,13.90
2023-02-06T12:39:32.633Z,16.50
2023-02-06T12:44:47.125Z,17.20
2023-02-06T12:50:34.763Z,16.30
2023-02-06T12:55:45.238Z,14.80
2023-02-06T13:06:21.216Z,16.60
2023-02-06T13:17:21.492Z,17.60
2023-02-06T13:22:45.083Z,17.30
2023-02-06T13:28:14.524Z,14.10
2023-02-06T13:33:43.924Z,12.30
2023-02-06T13:39:46.533Z,11.90
2023-02-06T13:44:55.020Z,10.60
2023-02-06T13:50:53.790Z,8.90
2023-02-06T13:56:39.349Z,10.50
2023-02-06T14:01:53.556Z,9.10
2023-02-06T14:07:21.962Z,10.20
2023-02-06T14:13:16.753Z,12.30
2023-02-06T14:18:40.491Z,11.20
2023-02-06T14:24:14.146Z,11.40
2023-02-06T14:30:02.586Z,11.10
2023-02-06T14:35:25.125Z,10.70
2023-02-06T14:40:31.242Z,10.00
2023-02-06T14:46:06.258Z,10.70
2023-02-06T14:51:39.491Z,10.10
2023-02-06T14:56:47.966Z,10.80
2023-02-06T15:01:56.839Z,10.50
2023-02-06T15:07:36.253Z,11.80
2023-02-06T15:12:39.033Z,11.70
2023-02-06T15:17:55.187Z,12.50
2023-02-06T15:23:17.227Z,12.30
2023-02-06T15:28:25.720Z,13.80
2023-02-06T15:33:32.466Z,15.90
2023-02-06T15:38:34.946Z,17.10
2023-02-06T15:43:46.965Z,14.10
2023-02-06T15:48:53.872Z,14.80
2023-02-06T15:54:22.845Z,15.30
2023-02-06T15:59:26.780Z,14.70
2023-02-06T16:04:39.741Z,15.10
2023-02-06T16:09:53.645Z,14.80
2023-02-06T16:15:00.544Z,15.80
2023-02-06T16:20:26.947Z,16.00
2023-02-06T16:25:31.500Z,15.20
2023-02-06T16:30:36.307Z,16.80
2023-02-06T16:35:39.079Z,18.70
2023-02-06T16:40:41.615Z,21.50
2023-02-06T16:45:43.485Z,27.20
2023-02-06T16:50:47.537Z,29.40
2023-02-06T16:55:50.472Z,31.40
2023-02-06T17:00:52.884Z,32.50
2023-02-06T17:05:54.953Z,29.40
2023-02-06T17:10:56.774Z,29.10
2023-02-06T17:15:58.847Z,29.30
2023-02-06T17:21:00.849Z,30.90
2023-02-06T17:26:02.694Z,30.80
2023-02-06T17:31:04.665Z,32.90
2023-02-06T17:36:11.415Z,30.60
2023-02-06T17:41:13.570Z,27.60
2023-02-06T17:46:16.946Z,25.90
2023-02-06T17:51:18.803Z,29.80
2023-02-06T17:56:21.001Z,32.10
2023-02-06T18:01:24.086Z,32.70
2023-02-06T18:06:26.700Z,39.00
2023-02-06T18:11:29.042Z,40.70
2023-02-06T18:16:31.998Z,38.80
2023-02-06T18:21:33.837Z,39.50
2023-02-06T18:26:35.917Z,41.30
2023-02-06T18:31:37.804Z,42.10
2023-02-06T18:36:40.056Z,42.90
2023-02-06T18:42:00.904Z,48.60
2023-02-06T18:47:02.658Z,59.90
2023-02-06T18:52:05.112Z,62.10
2023-02-06T18:57:07.350Z,55.70
2023-02-06T19:02:11.971Z,51.00
2023-02-06T19:07:13.884Z,45.10
2023-02-06T19:12:15.690Z,47.00
2023-02-06T19:17:17.532Z,48.60
2023-02-06T19:22:19.649Z,49.80
2023-02-06T19:27:22.168Z,45.50
2023-02-06T19:32:26.361Z,51.50
2023-02-06T19:37:28.152Z,51.90
2023-02-06T19:42:30.044Z,51.60
2023-02-06T19:47:32.182Z,51.10
2023-02-06T19:52:35.532Z,49.20
2023-02-06T19:57:39.592Z,51.00
2023-02-06T20:02:41.986Z,64.80
2023-02-06T20:07:44.115Z,51.50
2023-02-06T20:12:47.012Z,47.50
2023-02-06T20:17:51.277Z,54.70
2023-02-06T20:22:53.291Z,53.60
2023-02-06T20:27:55.116Z,48.90
2023-02-06T20:32:57.330Z,46.10
2023-02-06T20:37:59.370Z,43.80
2023-02-06T20:43:01.256Z,48.00
2023-02-06T20:48:03.346Z,48.40
2023-02-06T20:53:06.079Z,51.40
2023-02-06T20:58:10.678Z,59.90
2023-02-06T21:03:13.154Z,67.10
2023-02-06T21:08:14.954Z,68.20
2023-02-06T21:13:17.809Z,54.20
2023-02-06T21:18:20.402Z,50.50
2023-02-06T21:23:24.228Z,67.30
2023-02-06T21:28:26.475Z,86.20
2023-02-06T21:33:28.626Z,91.10
2023-02-06T21:38:30.631Z,80.40
2023-02-06T21:43:32.944Z,81.70
2023-02-06T21:48:35.975Z,72.80
2023-02-06T21:53:38.695Z,57.70
2023-02-06T21:58:40.655Z,59.30
2023-02-06T22:03:44.623Z,54.90
2023-02-06T22:08:51.733Z,67.10
2023-02-06T22:14:01.395Z,68.10
2023-02-06T22:19:04.394Z,67.90
2023-02-06T22:24:07.779Z,76.00
2023-02-06T22:29:15.993Z,70.70
2023-02-06T22:34:20.811Z,81.80
2023-02-06T22:39:22.864Z,80.80
2023-02-06T22:44:24.727Z,77.90
2023-02-06T22:49:26.506Z,74.00
2023-02-06T22:54:28.369Z,76.70
2023-02-06T22:59:30.265Z,68.60
2023-02-06T23:04:36.162Z,77.80
2023-02-06T23:09:38.931Z,80.80
2023-02-06T23:14:40.729Z,79.30
2023-02-06T23:19:42.514Z,68.50
2023-02-06T23:24:44.417Z,90.40
2023-02-06T23:29:46.782Z,118.60
2023-02-06T23:34:48.648Z,131.80
2023-02-06T23:39:50.537Z,133.20
2023-02-06T23:44:52.288Z,143.50
2023-02-06T23:49:54.115Z,155.40
2023-02-06T23:54:55.887Z,191.70
2023-02-06T23:59:57.724Z,175.10
